GCRRLEVX

Guest
Details From GCRR - Lanzarote
To LEVX - Vigo
Flight Number -
Tags Generated
Created
Modified
Stats Distance 834 nm / 1,544 km
Max Altitude 0 ft / 0 m
Waypoints 3
Social Downloads 2
Likes 0
Share VATSIM

Download

Looking for another format? Having issues loading an existing format? Contact us
Advertisement - Login to hide

Notes

Generated

Route

GCRR VON LEVX

ID Type Via Altitude Latitude Longitude Leg Dist Tot Dist Heading (true) Name
O GCRR APT - 0 ft / 0 m 28.93584˚ -13.61080˚ - 0 nm - -
VON NDB - 0 ft / 0 m 42.18604˚ -8.63900˚ 831 nm 831 nm 16° / 18° VIGO NDB
O LEVX APT - 0 ft / 0 m 42.22128˚ -8.62966˚ 2 nm 833 nm 11° / 11° -

Altitude Profile

Advertisement - Login to hide

Weather


0- 5 10 15 20 25 30 35+ Temperature / ° C

Clouds and Precipitation
Forecast for 2018-05-26 06:00 UTC. Updated 4 hours ago

Ground ~20,000 ft ~40,000 ft Winds

GCRR

Details ICAO GCRR (ACE)
Name Lanzarote
Region Canary Islands
Timezone Atlantic/Canary (UTC+1.0)
Stats Elevation 0 ft / 0 m (AMSL)
Location 28.945466° -13.605223°
Runways 1
Magnetic Variation 3.925° W

METAR

GCRR 260830Z 33015KT 9999 FEW035 20/11 Q1016

Decode

TAF

TAF GCRR 260800Z 2609/2709 36012KT 9999 FEW035 TX25/2614Z TN16/2705Z

Decode

Departure Runways

ID Width Length Bearing (true) Bearing (mag) Surface Threshold Offset Overrun Length
03 148 ft / 45 m 7,893 ft / 2,406 m 26.90° 30.83° Asphalt 197 ft / 60 m 197 ft / 60 m
21 148 ft / 45 m 7,893 ft / 2,406 m 206.91° 210.84° Asphalt 197 ft / 60 m 197 ft / 60 m

LEVX

Details ICAO LEVX (VGO)
Name Vigo
Region Spain
Timezone Europe/Madrid (UTC+2.0)
Stats Elevation 855 ft / 261 m (AMSL)
Location 42.231894° -8.626774°
Runways 1
Magnetic Variation 2.331° W

METAR

LEVX 260830Z VRB03KT 9000 SCT007 SCT028 17/14 Q1013 NOSIG

Decode

TAF

TAF LEVX 260500Z 2606/2706 VRB05KT 8000 SCT010 BKN015 TX19/2612Z TN12/2705Z TEMPO 2612/2618 32010KT TEMPO 2606/2612 1500 BCFG BKN005 TEMPO 2606/2610 0800 BCFG BKN002 TEMPO 2606/2610 0350 BCFG BKN001 PROB40 TEMPO 2609/2618 3000 RA SHRA BKN010 SCT020CB PROB30 TEMPO 2612/2618 TS SCT030CB

Decode

Destination Runways

ID Width Length Bearing (true) Bearing (mag) Surface Threshold Offset Overrun Length
02 148 ft / 45 m 7,905 ft / 2,409 m 11.38° 13.71° Asphalt 0 ft / 0 m 164 ft / 50 m
20 148 ft / 45 m 7,905 ft / 2,409 m 191.38° 193.71° Asphalt 0 ft / 0 m 164 ft / 50 m

Approach Navaids

Runway Type Ident Frequency Range Bearing (true) Bearing (mag) Slope Elevation
20 Localiser VIG 110.90 MHz 18 nm / 33 km 191.38° 193.71° - 855 ft / 261 m (AMSL)
20 Glidescope VIG 110.90 MHz 10 nm / 19 km 191.38° 193.71° 3.00° 855 ft / 261 m (AMSL)
20 DME VIG 110.90 MHz 18 nm / 33 km - - - 833 ft / 254 m (AMSL)